createdAt,value
2023-01-25T00:00:58.489Z,2.70
2023-01-25T00:03:28.651Z,2.60
2023-01-25T00:06:03.310Z,2.60
2023-01-25T00:08:33.413Z,2.40
2023-01-25T00:11:06.203Z,2.40
2023-01-25T00:13:36.357Z,2.40
2023-01-25T00:16:10.202Z,2.30
2023-01-25T00:18:41.542Z,2.40
2023-01-25T00:21:19.358Z,2.50
2023-01-25T00:23:49.539Z,2.50
2023-01-25T00:26:23.112Z,2.50
2023-01-25T00:28:53.655Z,2.70
2023-01-25T00:31:36.061Z,2.70
2023-01-25T00:34:47.539Z,2.70
2023-01-25T00:37:40.705Z,2.70
2023-01-25T00:40:15.684Z,2.90
2023-01-25T00:42:49.703Z,3.00
2023-01-25T00:45:19.953Z,3.00
2023-01-25T00:47:50.540Z,3.10
2023-01-25T00:50:20.787Z,3.10
2023-01-25T00:52:50.989Z,3.00
2023-01-25T00:55:21.089Z,3.00
2023-01-25T00:57:53.840Z,2.90
2023-01-25T01:00:24.082Z,2.90
2023-01-25T01:02:54.188Z,2.80
2023-01-25T01:05:24.279Z,2.70
2023-01-25T01:07:54.497Z,2.80
2023-01-25T01:10:24.848Z,2.80
2023-01-25T01:12:57.594Z,2.90
2023-01-25T01:15:27.634Z,2.90
2023-01-25T01:17:58.645Z,2.80
2023-01-25T01:20:28.866Z,2.70
2023-01-25T01:22:58.960Z,2.70
2023-01-25T01:25:31.010Z,2.70
2023-01-25T01:28:03.717Z,2.50
2023-01-25T01:30:36.121Z,2.40
2023-01-25T01:33:06.884Z,2.30
2023-01-25T01:35:36.971Z,2.50
2023-01-25T01:38:07.157Z,2.60
2023-01-25T01:40:39.578Z,2.40
2023-01-25T01:43:21.562Z,2.50
2023-01-25T01:46:00.153Z,2.50
2023-01-25T01:48:41.190Z,2.60
2023-01-25T01:51:24.196Z,2.60
2023-01-25T01:54:03.177Z,2.60
2023-01-25T01:56:40.483Z,2.60
2023-01-25T01:59:14.536Z,2.60
2023-01-25T02:01:47.142Z,2.60
2023-01-25T02:04:21.335Z,2.50
2023-01-25T02:06:58.474Z,2.40
2023-01-25T02:09:32.450Z,2.50
2023-01-25T02:12:06.524Z,2.40
2023-01-25T02:14:47.278Z,2.40
2023-01-25T02:17:20.224Z,2.60
2023-01-25T02:19:59.706Z,2.50
2023-01-25T02:22:39.539Z,2.60
2023-01-25T02:25:15.223Z,2.50
2023-01-25T02:27:51.616Z,2.50
2023-01-25T02:30:24.041Z,2.50
2023-01-25T02:32:57.343Z,2.40
2023-01-25T02:35:41.779Z,2.30
2023-01-25T02:38:16.545Z,2.40
2023-01-25T02:40:57.497Z,2.50
2023-01-25T02:43:35.164Z,2.50
2023-01-25T02:46:16.139Z,2.60
2023-01-25T02:48:46.260Z,2.60
2023-01-25T02:51:17.350Z,2.30
2023-01-25T02:53:47.447Z,2.20
2023-01-25T02:56:21.157Z,2.10
2023-01-25T02:58:51.492Z,2.10
2023-01-25T03:01:22.980Z,2.00
2023-01-25T03:03:53.490Z,2.00
2023-01-25T03:06:23.598Z,2.20
2023-01-25T03:08:53.701Z,2.20
2023-01-25T03:11:26.562Z,2.20
2023-01-25T03:13:56.979Z,2.30
2023-01-25T03:16:27.164Z,2.20
2023-01-25T03:18:58.833Z,2.30
2023-01-25T03:21:29.144Z,2.30
2023-01-25T03:24:02.343Z,2.30
2023-01-25T03:26:55.119Z,2.30
2023-01-25T03:29:25.267Z,2.20
2023-01-25T03:31:55.452Z,2.40
2023-01-25T03:34:26.673Z,2.50
2023-01-25T03:36:56.840Z,2.60
2023-01-25T03:39:27.074Z,2.50
2023-01-25T03:41:59.913Z,2.40
2023-01-25T03:44:30.041Z,2.20
2023-01-25T03:47:00.356Z,2.00
2023-01-25T03:49:30.672Z,2.10
2023-01-25T03:52:00.767Z,2.20
2023-01-25T03:54:30.823Z,2.30
2023-01-25T03:57:03.517Z,2.40
2023-01-25T03:59:33.607Z,2.40
2023-01-25T04:02:05.758Z,2.50
2023-01-25T04:04:35.875Z,2.30
2023-01-25T04:07:06.008Z,2.00
2023-01-25T04:09:36.073Z,1.80
2023-01-25T04:12:14.274Z,1.80
2023-01-25T04:14:45.135Z,1.90
2023-01-25T04:17:15.248Z,1.90
2023-01-25T04:19:45.331Z,1.90
2023-01-25T04:22:16.387Z,1.90
2023-01-25T04:24:46.797Z,2.00
2023-01-25T04:27:19.497Z,1.90
2023-01-25T04:29:49.576Z,2.00
2023-01-25T04:32:19.839Z,2.00
2023-01-25T04:34:50.041Z,2.00
2023-01-25T04:37:20.290Z,1.80
2023-01-25T04:39:50.440Z,1.80
2023-01-25T04:42:23.141Z,1.60
2023-01-25T04:44:53.292Z,1.60
2023-01-25T04:47:23.425Z,1.60
2023-01-25T04:49:53.539Z,1.70
2023-01-25T04:52:23.615Z,1.70
2023-01-25T04:54:56.144Z,1.80
2023-01-25T04:57:28.890Z,1.80
2023-01-25T05:00:03.223Z,1.90
2023-01-25T05:02:33.336Z,1.90
2023-01-25T05:05:03.609Z,1.90
2023-01-25T05:07:33.693Z,2.00
2023-01-25T05:10:03.814Z,2.00
2023-01-25T05:12:36.550Z,2.10
2023-01-25T05:15:08.111Z,1.90
2023-01-25T05:17:38.425Z,1.90
2023-01-25T05:20:09.672Z,1.80
2023-01-25T05:22:39.802Z,1.80
2023-01-25T05:25:31.311Z,1.70
2023-01-25T05:28:04.629Z,1.70
2023-01-25T05:30:34.827Z,1.60
2023-01-25T05:33:05.132Z,1.70
2023-01-25T05:35:37.641Z,1.80
2023-01-25T05:38:07.691Z,1.80
2023-01-25T05:40:37.778Z,1.70
2023-01-25T05:43:11.224Z,2.00
2023-01-25T05:45:43.904Z,1.90
2023-01-25T05:48:14.026Z,1.80
2023-01-25T05:50:44.127Z,1.90
2023-01-25T05:53:14.238Z,2.00
2023-01-25T05:55:44.598Z,1.90
2023-01-25T05:58:17.288Z,2.00
2023-01-25T06:00:47.417Z,2.00
2023-01-25T06:03:17.671Z,2.00
2023-01-25T06:05:48.125Z,1.70
2023-01-25T06:08:18.182Z,1.60
2023-01-25T06:10:48.330Z,1.60
2023-01-25T06:13:22.233Z,1.80
2023-01-25T06:15:56.361Z,1.90
2023-01-25T06:18:28.692Z,1.90
2023-01-25T06:21:00.809Z,2.00
2023-01-25T06:23:31.761Z,2.00
2023-01-25T06:26:02.932Z,2.00
2023-01-25T06:28:38.542Z,2.10
2023-01-25T06:31:14.289Z,2.10
2023-01-25T06:33:46.366Z,2.10
2023-01-25T06:36:22.286Z,1.90
2023-01-25T06:38:54.517Z,2.00
2023-01-25T06:41:25.003Z,2.00
2023-01-25T06:43:58.128Z,2.00
2023-01-25T06:46:28.425Z,1.90
2023-01-25T06:48:58.576Z,2.10
2023-01-25T06:51:28.815Z,2.10
2023-01-25T06:53:58.869Z,2.10
2023-01-25T06:56:29.154Z,2.20
2023-01-25T06:59:03.036Z,2.20
2023-01-25T07:01:34.778Z,2.10
2023-01-25T07:04:04.872Z,2.10
2023-01-25T07:06:36.833Z,1.90
2023-01-25T07:09:09.768Z,1.80
2023-01-25T07:11:40.697Z,1.80
2023-01-25T07:14:13.347Z,1.90
2023-01-25T07:16:43.521Z,1.90
2023-01-25T07:19:15.699Z,2.20
2023-01-25T07:21:47.699Z,2.20
2023-01-25T07:24:27.077Z,2.30
2023-01-25T07:26:57.403Z,2.20
2023-01-25T07:29:30.223Z,2.20
2023-01-25T07:32:00.961Z,2.20
2023-01-25T07:34:31.053Z,2.20
2023-01-25T07:37:01.190Z,2.20
2023-01-25T07:39:31.264Z,2.30
2023-01-25T07:42:01.363Z,2.40
2023-01-25T07:44:34.067Z,2.30
2023-01-25T07:47:04.225Z,2.20
2023-01-25T07:49:34.309Z,2.30
2023-01-25T07:52:04.722Z,2.20
2023-01-25T07:54:35.074Z,2.20
2023-01-25T07:57:05.131Z,2.20
2023-01-25T07:59:37.898Z,2.20
2023-01-25T08:02:07.967Z,2.20
2023-01-25T08:04:39.401Z,2.20
2023-01-25T08:07:09.482Z,2.10
2023-01-25T08:09:39.638Z,2.10
2023-01-25T08:12:12.830Z,2.20
2023-01-25T08:14:45.595Z,2.20
2023-01-25T08:17:15.660Z,2.30
2023-01-25T08:19:47.169Z,2.20
2023-01-25T08:22:17.250Z,2.20
2023-01-25T08:24:47.427Z,2.10
2023-01-25T08:27:17.532Z,1.90
2023-01-25T08:29:50.572Z,1.90
2023-01-25T08:32:20.634Z,1.90
2023-01-25T08:34:50.959Z,1.90
2023-01-25T08:37:21.146Z,1.90
2023-01-25T08:39:51.314Z,2.10
2023-01-25T08:42:21.657Z,2.10
2023-01-25T08:44:54.542Z,2.30
2023-01-25T08:47:26.745Z,2.30
2023-01-25T08:49:56.975Z,2.30
2023-01-25T08:52:27.034Z,2.30
2023-01-25T08:54:57.207Z,2.40
2023-01-25T08:57:27.284Z,2.40
2023-01-25T09:00:03.285Z,2.40
2023-01-25T09:02:33.997Z,2.40
2023-01-25T09:05:04.153Z,2.30
2023-01-25T09:07:38.557Z,2.10
2023-01-25T09:10:10.377Z,2.10
2023-01-25T09:12:40.895Z,1.90
2023-01-25T09:15:13.984Z,1.90
2023-01-25T09:17:44.152Z,2.00
2023-01-25T09:20:16.601Z,2.10
2023-01-25T09:22:47.524Z,2.10
2023-01-25T09:25:18.778Z,2.10
2023-01-25T09:27:53.175Z,2.10
2023-01-25T09:30:37.313Z,2.10
2023-01-25T09:33:14.862Z,2.10
2023-01-25T09:35:51.649Z,2.10
2023-01-25T09:38:22.068Z,2.10
2023-01-25T09:41:21.722Z,1.90
2023-01-25T09:44:15.715Z,1.70
2023-01-25T09:46:52.954Z,1.60
2023-01-25T09:49:44.653Z,1.50
2023-01-25T09:52:50.851Z,1.50
2023-01-25T09:55:26.488Z,1.30
2023-01-25T09:58:00.627Z,1.30
2023-01-25T10:00:36.036Z,1.30
2023-01-25T10:03:23.872Z,1.20
2023-01-25T10:05:59.205Z,1.20
2023-01-25T10:08:38.617Z,1.10
2023-01-25T10:11:23.457Z,1.20
2023-01-25T10:13:55.952Z,1.40
2023-01-25T10:16:33.590Z,1.70
2023-01-25T10:19:22.755Z,1.70
2023-01-25T10:22:00.705Z,1.50
2023-01-25T10:25:32.889Z,1.50
2023-01-25T10:28:23.175Z,1.50
2023-01-25T10:31:02.883Z,1.50
2023-01-25T10:33:40.467Z,1.50
2023-01-25T10:36:18.700Z,1.60
2023-01-25T10:38:57.531Z,1.60
2023-01-25T10:41:37.400Z,1.80
2023-01-25T10:44:20.335Z,1.80
2023-01-25T10:46:59.169Z,1.60
2023-01-25T10:49:50.164Z,1.60
2023-01-25T10:52:26.279Z,2.00
2023-01-25T10:55:18.374Z,2.10
2023-01-25T10:57:52.530Z,2.20
2023-01-25T11:00:31.841Z,2.20
2023-01-25T11:03:02.333Z,2.10
2023-01-25T11:05:37.937Z,1.80
2023-01-25T11:08:36.010Z,1.60
2023-01-25T11:11:29.724Z,1.50
2023-01-25T11:13:59.974Z,1.50
2023-01-25T11:16:36.972Z,1.80
2023-01-25T11:19:28.728Z,1.90
2023-01-25T11:22:00.813Z,1.90
2023-01-25T11:24:35.674Z,2.10
2023-01-25T11:27:24.373Z,2.00
2023-01-25T11:30:12.368Z,2.00
2023-01-25T11:32:43.718Z,1.90
2023-01-25T11:35:21.601Z,1.80
2023-01-25T11:38:16.261Z,1.60
2023-01-25T11:41:00.333Z,1.60
2023-01-25T11:44:10.393Z,1.60
2023-01-25T11:46:54.710Z,1.90
2023-01-25T11:49:46.409Z,1.90
2023-01-25T11:52:39.597Z,1.80
2023-01-25T11:55:29.281Z,1.70
2023-01-25T11:58:27.368Z,1.80
2023-01-25T12:01:14.503Z,1.90
2023-01-25T12:04:18.364Z,2.20
2023-01-25T12:07:03.864Z,2.40
2023-01-25T12:10:05.977Z,2.20
2023-01-25T12:12:54.098Z,2.00
2023-01-25T12:15:46.020Z,1.80
2023-01-25T12:19:05.003Z,1.80
2023-01-25T12:21:56.191Z,1.70
2023-01-25T12:24:48.156Z,1.60
2023-01-25T12:27:37.859Z,1.60
2023-01-25T12:30:23.786Z,1.60
2023-01-25T12:33:14.420Z,1.80
2023-01-25T12:35:52.115Z,1.90
2023-01-25T12:38:32.170Z,1.90
2023-01-25T12:41:09.587Z,1.90
2023-01-25T12:43:48.360Z,2.10
2023-01-25T12:46:29.887Z,2.10
2023-01-25T12:49:10.896Z,2.10
2023-01-25T12:51:46.402Z,2.30
2023-01-25T12:54:27.334Z,2.20
2023-01-25T12:57:08.434Z,1.90
2023-01-25T12:59:51.263Z,2.00
2023-01-25T13:03:06.817Z,2.00
2023-01-25T13:05:51.212Z,2.10
2023-01-25T13:08:39.094Z,2.10
2023-01-25T13:11:19.411Z,2.00
2023-01-25T13:13:49.868Z,2.10
2023-01-25T13:16:39.026Z,2.00
2023-01-25T13:19:26.155Z,1.80
2023-01-25T13:22:01.229Z,2.10
2023-01-25T13:24:34.625Z,2.10
2023-01-25T13:27:26.106Z,2.30
2023-01-25T13:30:04.487Z,2.60
2023-01-25T13:33:05.734Z,2.70
2023-01-25T13:35:47.242Z,2.40
2023-01-25T13:38:43.792Z,2.30
2023-01-25T13:41:20.713Z,1.90
2023-01-25T13:44:23.036Z,1.70
2023-01-25T13:46:53.090Z,1.50
2023-01-25T13:49:33.826Z,1.50
2023-01-25T13:52:09.396Z,1.90
2023-01-25T13:54:50.809Z,1.90
2023-01-25T13:57:26.039Z,1.90
2023-01-25T14:00:11.614Z,2.00
2023-01-25T14:02:46.296Z,1.70
2023-01-25T14:05:23.772Z,1.80
2023-01-25T14:07:59.506Z,1.90
2023-01-25T14:10:32.558Z,1.80
2023-01-25T14:13:04.885Z,2.00
2023-01-25T14:15:41.185Z,2.10
2023-01-25T14:18:19.249Z,1.90
2023-01-25T14:20:53.686Z,1.90
2023-01-25T14:23:29.648Z,1.90
2023-01-25T14:26:02.895Z,1.70
2023-01-25T14:28:33.723Z,1.60
2023-01-25T14:31:06.131Z,1.60
2023-01-25T14:33:44.515Z,1.60
2023-01-25T14:36:25.190Z,1.60
2023-01-25T14:38:57.097Z,1.60
2023-01-25T14:41:35.509Z,1.60
2023-01-25T14:44:10.682Z,1.70
2023-01-25T14:46:43.616Z,1.70
2023-01-25T14:49:25.590Z,1.70
2023-01-25T14:52:10.993Z,1.90
2023-01-25T14:54:54.213Z,1.70
2023-01-25T14:57:40.139Z,1.40
2023-01-25T15:00:31.700Z,1.30
2023-01-25T15:03:06.793Z,1.20
2023-01-25T15:05:40.326Z,1.20
2023-01-25T15:08:31.048Z,1.10
2023-01-25T15:11:17.225Z,1.00
2023-01-25T15:13:50.724Z,1.20
2023-01-25T15:16:21.378Z,1.10
2023-01-25T15:18:54.429Z,0.90
2023-01-25T15:21:29.662Z,0.90
2023-01-25T15:24:05.070Z,1.00
2023-01-25T15:26:38.526Z,1.00
2023-01-25T15:29:20.928Z,1.30
2023-01-25T15:31:53.053Z,1.30
2023-01-25T15:34:30.363Z,1.30
2023-01-25T15:37:03.257Z,1.20
2023-01-25T15:39:35.290Z,1.20
2023-01-25T15:42:05.454Z,1.10
2023-01-25T15:44:38.127Z,1.00
2023-01-25T15:47:08.381Z,1.00
2023-01-25T15:49:39.666Z,1.10
2023-01-25T15:52:09.945Z,1.10
2023-01-25T15:54:48.584Z,1.20
2023-01-25T15:57:34.087Z,1.10
2023-01-25T16:00:08.997Z,1.10
2023-01-25T16:02:39.420Z,1.00
2023-01-25T16:05:10.365Z,1.10
2023-01-25T16:07:43.338Z,1.20
2023-01-25T16:10:24.567Z,1.10
2023-01-25T16:12:54.934Z,1.10
2023-01-25T16:15:27.627Z,0.90
2023-01-25T16:17:57.755Z,0.70
2023-01-25T16:20:27.845Z,0.80
2023-01-25T16:22:58.141Z,0.90
2023-01-25T16:25:28.318Z,1.00
2023-01-25T16:27:58.438Z,1.10
2023-01-25T16:30:34.145Z,1.10
2023-01-25T16:33:04.391Z,1.10
2023-01-25T16:35:34.539Z,0.90
2023-01-25T16:38:04.696Z,0.90
2023-01-25T16:40:39.839Z,0.90
2023-01-25T16:43:10.000Z,1.00
2023-01-25T16:45:42.690Z,0.90
2023-01-25T16:48:18.347Z,0.80
2023-01-25T16:50:48.436Z,0.80
2023-01-25T16:53:18.588Z,0.70
2023-01-25T16:55:49.608Z,0.80
2023-01-25T16:58:19.655Z,0.80
2023-01-25T17:00:52.371Z,0.70
2023-01-25T17:03:22.463Z,1.10
2023-01-25T17:05:52.581Z,1.60
2023-01-25T17:08:24.938Z,1.70
2023-01-25T17:10:57.496Z,1.50
2023-01-25T17:13:27.730Z,1.40
2023-01-25T17:16:02.438Z,1.30
2023-01-25T17:18:32.624Z,1.40
2023-01-25T17:21:05.879Z,1.60
2023-01-25T17:23:40.957Z,1.50
2023-01-25T17:26:14.453Z,1.30
2023-01-25T17:28:46.627Z,1.30
2023-01-25T17:31:22.804Z,1.10
2023-01-25T17:33:53.557Z,1.00
2023-01-25T17:36:23.970Z,1.10
2023-01-25T17:38:54.069Z,1.20
2023-01-25T17:41:25.360Z,1.30
2023-01-25T17:43:55.661Z,1.30
2023-01-25T17:46:33.140Z,1.10
2023-01-25T17:49:04.757Z,1.10
2023-01-25T17:51:36.606Z,1.10
2023-01-25T17:54:08.332Z,1.00
2023-01-25T17:56:39.663Z,1.00
2023-01-25T17:59:11.720Z,0.90
2023-01-25T18:01:45.421Z,0.90
2023-01-25T18:04:20.549Z,0.90
2023-01-25T18:06:50.775Z,0.90
2023-01-25T18:09:20.934Z,0.80
2023-01-25T18:11:51.078Z,0.80
2023-01-25T18:14:23.687Z,0.70
2023-01-25T18:16:58.760Z,0.70
2023-01-25T18:19:31.701Z,0.70
2023-01-25T18:22:01.829Z,0.70
2023-01-25T18:24:36.364Z,0.50
2023-01-25T18:27:13.568Z,0.50
2023-01-25T18:29:50.648Z,0.50
2023-01-25T18:32:23.691Z,0.60
2023-01-25T18:34:53.796Z,0.60
2023-01-25T18:37:29.323Z,0.60
2023-01-25T18:39:59.756Z,0.60
2023-01-25T18:42:31.253Z,0.60
2023-01-25T18:45:01.340Z,0.60
2023-01-25T18:47:36.631Z,0.40
2023-01-25T18:50:09.396Z,0.40
2023-01-25T18:52:39.766Z,0.40
2023-01-25T18:55:10.916Z,0.40
2023-01-25T18:57:41.728Z,0.60
2023-01-25T19:00:17.535Z,0.50
2023-01-25T19:02:50.380Z,0.50
2023-01-25T19:05:21.758Z,0.40
2023-01-25T19:07:52.016Z,0.30
2023-01-25T19:10:23.151Z,0.30
2023-01-25T19:12:53.749Z,0.40
2023-01-25T19:15:23.990Z,0.50
2023-01-25T19:17:56.727Z,0.50
2023-01-25T19:20:29.114Z,0.40
2023-01-25T19:22:59.291Z,0.40
2023-01-25T19:25:32.275Z,0.40
2023-01-25T19:28:04.079Z,0.50
2023-01-25T19:30:34.174Z,0.40
2023-01-25T19:33:06.980Z,0.30
2023-01-25T19:35:37.086Z,0.30
2023-01-25T19:38:07.602Z,0.20
2023-01-25T19:40:37.848Z,0.20
2023-01-25T19:43:08.188Z,0.20
2023-01-25T19:45:38.288Z,0.10
2023-01-25T19:48:11.003Z,0.10
2023-01-25T19:50:42.945Z,0.10
2023-01-25T19:53:13.132Z,0.00
2023-01-25T19:55:43.273Z,0.10
2023-01-25T19:58:13.413Z,0.10
2023-01-25T20:00:45.540Z,0.10
2023-01-25T20:03:18.291Z,0.10
2023-01-25T20:05:48.423Z,0.10
2023-01-25T20:08:18.584Z,0.20
2023-01-25T20:10:48.670Z,0.20
2023-01-25T20:13:19.004Z,0.30
2023-01-25T20:15:52.127Z,0.60
2023-01-25T20:18:26.062Z,0.30
2023-01-25T20:21:00.491Z,0.10
2023-01-25T20:23:34.419Z,0.00
2023-01-25T20:26:08.621Z,-0.10
2023-01-25T20:28:40.489Z,-0.10
2023-01-25T20:31:23.041Z,-0.10
2023-01-25T20:34:00.904Z,-0.10
2023-01-25T20:36:33.189Z,-0.10
2023-01-25T20:39:03.986Z,-0.10
2023-01-25T20:41:34.163Z,-0.10
2023-01-25T20:44:08.644Z,-0.10
2023-01-25T20:46:41.471Z,0.00
2023-01-25T20:49:19.395Z,0.00
2023-01-25T20:51:50.571Z,0.10
2023-01-25T20:54:21.784Z,0.10
2023-01-25T20:56:51.940Z,0.10
2023-01-25T20:59:22.097Z,0.20
2023-01-25T21:01:52.404Z,0.00
2023-01-25T21:04:25.404Z,-0.10
2023-01-25T21:06:55.463Z,-0.10
2023-01-25T21:09:28.329Z,0.00
2023-01-25T21:11:58.418Z,-0.10
2023-01-25T21:14:28.622Z,-0.20
2023-01-25T21:16:58.812Z,-0.10
2023-01-25T21:19:34.093Z,-0.20
2023-01-25T21:22:04.220Z,-0.20
2023-01-25T21:24:34.749Z,-0.10
2023-01-25T21:27:04.911Z,0.10
2023-01-25T21:29:34.968Z,0.10
2023-01-25T21:32:05.100Z,0.00
2023-01-25T21:34:37.908Z,0.00
2023-01-25T21:37:07.983Z,0.00
2023-01-25T21:39:38.107Z,0.20
2023-01-25T21:42:08.458Z,0.10
2023-01-25T21:44:50.965Z,0.20
2023-01-25T21:47:30.443Z,0.20
2023-01-25T21:50:16.090Z,0.10
2023-01-25T21:52:46.434Z,0.00
2023-01-25T21:55:16.709Z,0.20
2023-01-25T21:57:49.081Z,0.10
2023-01-25T22:00:22.083Z,0.10
2023-01-25T22:02:54.563Z,0.10
2023-01-25T22:05:27.326Z,0.30
2023-01-25T22:07:57.475Z,0.30
2023-01-25T22:10:27.695Z,0.70
2023-01-25T22:13:00.162Z,0.90
2023-01-25T22:15:30.263Z,0.90
2023-01-25T22:18:00.362Z,0.90
2023-01-25T22:20:33.016Z,1.00
2023-01-25T22:23:03.141Z,0.90
2023-01-25T22:25:35.803Z,1.10
2023-01-25T22:28:07.776Z,0.70
2023-01-25T22:30:38.984Z,0.40
2023-01-25T22:33:09.190Z,0.20
2023-01-25T22:35:41.825Z,0.00
2023-01-25T22:38:11.945Z,-0.10
2023-01-25T22:40:42.014Z,-0.10
2023-01-25T22:43:12.168Z,0.20
2023-01-25T22:45:42.238Z,0.60
2023-01-25T22:48:14.473Z,0.80
2023-01-25T22:50:47.206Z,1.00
2023-01-25T22:53:17.395Z,1.10
2023-01-25T22:55:47.485Z,1.30
2023-01-25T22:58:17.615Z,1.20
2023-01-25T23:00:48.901Z,1.20
2023-01-25T23:03:19.550Z,1.20
2023-01-25T23:05:52.649Z,1.10
2023-01-25T23:08:22.796Z,0.90
2023-01-25T23:10:52.880Z,0.70
2023-01-25T23:13:23.072Z,0.60
2023-01-25T23:15:53.165Z,0.60
2023-01-25T23:18:35.765Z,0.50
2023-01-25T23:21:09.425Z,0.80
2023-01-25T23:23:39.641Z,0.80
2023-01-25T23:26:12.349Z,0.70
2023-01-25T23:28:42.686Z,1.00
2023-01-25T23:31:21.547Z,0.80
2023-01-25T23:33:55.426Z,0.70
2023-01-25T23:36:31.562Z,0.50
2023-01-25T23:39:03.018Z,0.40
2023-01-25T23:41:34.577Z,0.60
2023-01-25T23:44:04.807Z,0.70
2023-01-25T23:46:34.904Z,0.80
2023-01-25T23:49:05.062Z,0.80
2023-01-25T23:51:37.773Z,0.50
2023-01-25T23:54:08.188Z,0.30
2023-01-25T23:56:38.215Z,0.20
2023-01-25T23:59:08.376Z,0.20
